Time;durP1;ratioP1;P1;durP2;ratioP2;P2;SDS_P1;SDS_P2;PMS_P1;PMS_P2;Temp;Humidity;BMP_temperature;BMP_pressure;BME280_temperature;BME280_humidity;BME280_pressure;Samples;Min_cycle;Max_cycle;Signal;HPM_P1;HPM_P2
2024/02/01 00:00:34;;;;;;;43.67;12.30;;;10.80;99.90;;;10.89;100.00;102279.44;4990014;28;20113;-68
2024/02/01 00:03:03;;;;;;;38.45;11.70;;;10.70;99.90;;;10.82;100.00;102269.59;4992005;28;20038;-68
2024/02/01 00:05:32;;;;;;;41.97;12.05;;;10.70;99.90;;;10.95;100.00;102290.16;4992193;28;20050;-67
2024/02/01 00:08:00;;;;;;;43.00;13.25;;;10.70;99.90;;;10.91;100.00;102288.31;4991967;28;20377;-68
2024/02/01 00:10:30;;;;;;;50.38;12.27;;;10.70;99.90;;;10.93;100.00;102291.88;4991804;28;20042;-69
2024/02/01 00:12:58;;;;;;;48.43;13.10;;;10.70;99.90;;;10.97;100.00;102274.28;4992216;28;20034;-68
2024/02/01 00:15:27;;;;;;;51.17;12.93;;;10.70;99.90;;;10.95;100.00;102276.00;4991839;28;20364;-68
2024/02/01 00:17:56;;;;;;;47.28;12.13;;;10.70;99.90;;;11.01;100.00;102284.06;4991969;28;20065;-68
2024/02/01 00:20:25;;;;;;;47.60;12.85;;;10.70;99.90;;;10.43;100.00;102223.94;4992130;28;20426;-68
2024/02/01 00:22:53;;;;;;;51.95;13.68;;;10.70;99.90;;;11.04;100.00;102289.38;4992081;28;20396;-69
2024/02/01 00:25:21;;;;;;;50.78;13.38;;;10.70;99.90;;;11.00;100.00;102280.50;4991654;28;20047;-69
2024/02/01 00:27:51;;;;;;;42.22;12.65;;;10.80;99.90;;;11.05;100.00;102277.94;4991524;28;20042;-69
2024/02/01 00:30:20;;;;;;;39.30;12.53;;;10.80;99.90;;;10.98;100.00;102287.53;4991786;28;20488;-69
2024/02/01 00:32:49;;;;;;;49.80;13.00;;;10.80;99.90;;;11.03;100.00;102287.63;4991954;28;20344;-69
2024/02/01 00:35:17;;;;;;;49.13;13.80;;;10.80;99.90;;;10.96;100.00;102286.63;4991924;28;20112;-69
2024/02/01 00:37:46;;;;;;;44.17;14.05;;;10.80;99.90;;;11.07;100.00;102290.31;4990204;28;20053;-69
2024/02/01 00:40:15;;;;;;;47.95;15.35;;;10.80;99.90;;;11.04;100.00;102277.03;4991344;28;20034;-69
2024/02/01 00:42:43;;;;;;;44.45;14.88;;;10.80;99.90;;;11.08;100.00;102277.97;4991643;28;20042;-69
2024/02/01 00:45:13;;;;;;;45.00;15.25;;;10.80;99.90;;;11.10;100.00;102287.75;4989972;28;20046;-70
2024/02/01 00:47:41;;;;;;;45.00;15.50;;;10.90;99.90;;;11.10;100.00;102281.53;4991801;28;20068;-69
2024/02/01 00:50:10;;;;;;;50.22;14.70;;;10.80;99.90;;;11.13;100.00;102284.25;4991365;28;20049;-69
2024/02/01 00:52:38;;;;;;;45.47;15.10;;;10.90;99.90;;;11.13;100.00;102284.25;4991587;28;20085;-69
2024/02/01 00:55:09;;;;;;;39.58;13.70;;;10.90;99.90;;;10.45;100.00;102154.31;4991362;28;20038;-69
2024/02/01 00:57:37;;;;;;;41.90;14.15;;;10.90;99.90;;;11.21;100.00;102288.78;4991549;28;20050;-69
2024/02/01 01:00:08;;;;;;;39.38;13.88;;;11.00;99.90;;;11.24;100.00;102294.16;4989930;28;20149;-69
2024/02/01 01:02:37;;;;;;;42.83;13.32;;;11.00;99.90;;;11.24;100.00;102288.84;4989868;28;20054;-69
2024/02/01 01:05:07;;;;;;;44.15;14.07;;;11.00;99.90;;;10.98;100.00;102250.47;4991094;28;20403;-69
2024/02/01 01:07:36;;;;;;;43.97;13.40;;;11.00;99.90;;;11.12;100.00;102263.94;4990872;28;20042;-68
2024/02/01 01:10:05;;;;;;;43.13;13.93;;;11.00;99.90;;;11.30;100.00;102285.41;4991166;28;20449;-69
2024/02/01 01:12:33;;;;;;;37.97;13.20;;;11.00;99.90;;;11.28;100.00;102290.69;4989551;28;20050;-69
2024/02/01 01:15:05;;;;;;;44.75;13.80;;;11.10;99.90;;;11.31;100.00;102292.47;4989878;28;20061;-68
2024/02/01 01:17:34;;;;;;;43.90;12.32;;;11.10;99.90;;;11.31;100.00;102303.06;4990948;28;20087;-69
2024/02/01 01:20:05;;;;;;;44.95;12.57;;;11.10;99.90;;;11.36;100.00;102301.41;4991000;28;20046;-69
2024/02/01 01:22:33;;;;;;;;;;;11.10;99.90;;;11.34;100.00;102313.72;4991297;28;20073;-69
2024/02/01 01:25:01;;;;;;;50.58;12.95;;;11.20;99.90;;;11.21;100.00;102307.34;4990813;28;19995;-69
2024/02/01 01:27:30;;;;;;;50.42;12.88;;;11.00;99.90;;;10.61;100.00;102195.13;4991361;28;20112;-69
2024/02/01 01:29:58;;;;;;;58.15;13.10;;;11.10;99.90;;;11.25;100.00;102309.16;4991364;28;20038;-68
2024/02/01 01:32:27;;;;;;;43.47;12.27;;;11.10;99.90;;;11.14;100.00;102316.06;4990808;28;20338;-68
2024/02/01 01:34:55;;;;;;;42.60;11.50;;;11.00;99.90;;;11.08;100.00;102294.78;4991374;28;20064;-68
2024/02/01 01:37:25;;;;;;;39.00;11.50;;;11.00;99.90;;;11.13;100.00;102318.69;4990729;28;20042;-68
2024/02/01 01:39:54;;;;;;;39.97;11.38;;;10.90;99.90;;;11.12;100.00;102325.72;4990968;28;20104;-68
2024/02/01 01:42:22;;;;;;;37.22;10.60;;;10.90;99.90;;;11.04;100.00;102330.00;4990927;28;20046;-68
2024/02/01 01:44:50;;;;;;;38.95;11.75;;;10.90;99.90;;;11.01;100.00;102329.06;4989558;28;20047;-68
2024/02/01 01:47:19;;;;;;;34.53;11.10;;;10.80;99.90;;;11.02;100.00;102331.72;4990948;28;20460;-68
2024/02/01 01:49:47;;;;;;;43.10;11.48;;;10.80;99.90;;;11.04;100.00;102337.94;4989604;28;20050;-68
2024/02/01 01:52:16;;;;;;;45.22;11.35;;;10.80;99.90;;;11.01;100.00;102340.56;4990879;28;20403;-68
2024/02/01 01:54:46;;;;;;;42.55;11.25;;;10.80;99.90;;;10.98;100.00;102344.88;4990556;28;20046;-69
2024/02/01 01:57:15;;;;;;;;;;;10.80;99.90;;;10.97;100.00;102344.00;4991812;28;20069;-69
2024/02/01 01:59:43;;;;;;;37.33;11.43;;;10.80;99.90;;;10.91;100.00;102343.91;4991913;28;19932;-69
2024/02/01 02:02:12;;;;;;;45.63;11.68;;;10.70;99.90;;;10.91;100.00;102359.78;4991634;28;20100;-68
2024/02/01 02:04:42;;;;;;;41.17;10.40;;;10.70;99.90;;;10.87;100.00;102364.13;4991491;28;20046;-68
2024/02/01 02:07:10;;;;;;;47.33;11.53;;;10.70;99.90;;;10.85;100.00;102354.38;4991534;28;20038;-68
2024/02/01 02:09:39;;;;;;;35.33;10.57;;;10.60;99.90;;;10.81;100.00;102360.47;4991079;28;20081;-69
2024/02/01 02:12:10;;;;;;;46.00;11.68;;;10.60;99.90;;;10.85;100.00;102365.88;4992304;28;20066;-69
2024/02/01 02:14:39;;;;;;;46.05;11.57;;;10.60;99.90;;;10.79;100.00;102375.44;4992631;28;20048;-70
2024/02/01 02:17:07;;;;;;;46.35;11.00;;;10.60;99.90;;;10.77;100.00;102380.72;4992248;28;20042;-67
2024/02/01 02:19:36;;;;;;;45.90;12.93;;;10.60;99.90;;;10.63;100.00;102378.63;4991412;28;20395;-69
2024/02/01 02:22:06;;;;;;;46.85;11.65;;;10.50;99.90;;;10.53;100.00;102382.00;4992632;28;20050;-70
2024/02/01 02:24:34;;;;;;;45.42;11.82;;;10.30;99.90;;;10.49;100.00;102396.00;4994053;28;20050;-69
2024/02/01 02:27:05;;;;;;;42.60;10.95;;;10.30;99.90;;;10.48;100.00;102402.16;4994382;28;20077;-68
2024/02/01 02:29:32;;;;;;;42.72;11.57;;;10.30;99.90;;;10.43;100.00;102404.69;4994917;28;20050;-69
2024/02/01 02:32:01;;;;;;;39.15;8.55;;;10.20;99.90;;;10.33;100.00;102405.38;4995800;28;20113;-68
2024/02/01 02:34:29;;;;;;;44.08;9.68;;;10.20;99.90;;;10.44;100.00;102403.84;4995635;28;20065;-69
2024/02/01 02:36:57;;;;;;;31.67;8.32;;;10.30;99.90;;;10.39;100.00;102410.81;4995680;28;20053;-69
2024/02/01 02:39:27;;;;;;;28.77;7.78;;;10.10;99.90;;;10.44;100.00;102417.06;4995527;28;20042;-69
2024/02/01 02:41:56;;;;;;;31.40;7.70;;;10.20;99.90;;;10.14;100.00;102375.88;4995513;28;20042;-68
2024/02/01 02:44:24;;;;;;;32.75;8.85;;;10.20;99.90;;;10.29;100.00;102419.41;4995453;28;20675;-68
2024/02/01 02:46:53;;;;;;;35.80;7.70;;;10.10;99.90;;;10.47;100.00;102435.63;4995827;28;20042;-68
2024/02/01 02:49:21;;;;;;;40.28;7.50;;;10.20;99.90;;;10.27;100.00;102429.06;4994751;28;20034;-69
2024/02/01 02:51:49;;;;;;;37.65;8.52;;;10.20;99.90;;;10.34;100.00;102445.94;4995293;28;20038;-68
2024/02/01 02:54:18;;;;;;;35.78;8.27;;;10.20;99.90;;;10.21;100.00;102436.84;4995656;28;20042;-68
2024/02/01 02:56:48;;;;;;;34.72;7.80;;;10.00;99.90;;;10.24;100.00;102451.91;4995126;28;20042;-68
2024/02/01 02:59:17;;;;;;;35.72;7.18;;;10.00;99.90;;;10.36;100.00;102450.41;4995785;28;20100;-68
2024/02/01 03:01:46;;;;;;;37.92;8.10;;;10.20;99.90;;;10.23;100.00;102448.34;4995002;28;20435;-68
2024/02/01 03:04:14;;;;;;;33.45;7.20;;;10.10;99.90;;;10.24;100.00;102449.25;4995226;28;20112;-68
2024/02/01 03:06:42;;;;;;;31.40;7.75;;;10.10;99.90;;;10.21;100.00;102457.09;4994053;28;20042;-68
2024/02/01 03:09:16;;;;;;;34.30;7.30;;;10.00;99.90;;;10.12;100.00;102460.44;4995174;28;20046;-69
2024/02/01 03:11:46;;;;;;;38.83;8.00;;;9.90;99.90;;;10.00;100.00;102462.78;4995084;28;20049;-69
2024/02/01 03:14:15;;;;;;;33.95;8.15;;;9.80;99.90;;;9.84;100.00;102465.88;4995061;28;20531;-70
2024/02/01 03:16:43;;;;;;;41.90;8.13;;;9.70;99.90;;;9.72;100.00;102474.41;4994876;28;20046;-69
2024/02/01 03:19:12;;;;;;;41.40;8.25;;;9.60;99.90;;;9.80;100.00;102478.16;4995221;28;20058;-69
2024/02/01 03:21:41;;;;;;;32.00;7.22;;;9.60;99.90;;;9.99;100.00;102480.38;4994779;28;20060;-69
2024/02/01 03:24:09;;;;;;;39.88;8.13;;;9.70;99.90;;;9.92;100.00;102483.72;4994599;28;20104;-69
2024/02/01 03:26:40;;;;;;;35.65;7.70;;;9.80;99.90;;;9.84;100.00;102495.88;4994529;28;20038;-69
2024/02/01 03:29:15;;;;;;;36.03;8.68;;;9.70;99.90;;;10.10;100.00;102485.06;4994771;28;20041;-69
2024/02/01 03:31:44;;;;;;;43.42;8.15;;;9.80;99.90;;;10.13;99.74;102496.59;4994614;28;20088;-69
2024/02/01 03:34:20;;;;;;;34.70;8.35;;;9.90;99.90;;;9.88;99.16;102480.97;4993640;28;20550;-69
2024/02/01 03:36:49;;;;;;;31.80;7.15;;;9.80;99.90;;;9.92;98.78;102491.66;4994524;28;20058;-69
2024/02/01 03:39:23;;;;;;;34.35;8.13;;;9.80;99.90;;;10.06;97.52;102505.22;4994941;28;20046;-69
2024/02/01 03:41:54;;;;;;;30.85;7.50;;;9.80;99.90;;;10.08;95.81;102527.28;4994274;28;20471;-69
2024/02/01 03:44:24;;;;;;;29.63;7.53;;;9.80;99.90;;;10.09;93.81;102517.59;4994424;28;20121;-69
2024/02/01 03:46:54;;;;;;;32.35;8.30;;;9.90;99.90;;;9.79;92.71;102520.41;4994244;28;20050;-69
2024/02/01 03:49:22;;;;;;;36.30;7.15;;;9.70;99.90;;;9.83;92.59;102532.84;4994246;28;20129;-69
2024/02/01 03:51:51;;;;;;;30.58;7.28;;;9.60;99.90;;;9.64;92.14;102534.09;4994740;28;20066;-69
2024/02/01 03:54:19;;;;;;;34.10;7.88;;;9.50;99.90;;;9.55;90.94;102541.78;4994666;28;20038;-69
2024/02/01 03:56:51;;;;;;;36.75;7.40;;;9.40;99.90;;;9.46;91.59;102536.28;4994081;28;20128;-69
2024/02/01 03:59:20;;;;;;;33.95;7.65;;;9.30;99.90;;;9.34;91.26;102542.94;4994096;28;20101;-70
2024/02/01 04:01:50;;;;;;;36.08;8.43;;;9.20;99.90;;;9.28;91.79;102548.97;4992975;28;20482;-69
2024/02/01 04:04:19;;;;;;;38.42;8.13;;;9.10;99.90;;;9.26;92.08;102555.03;4994264;28;20065;-70
2024/02/01 04:06:51;;;;;;;32.45;7.63;;;9.00;99.90;;;9.24;91.56;102565.56;4994186;28;20156;-69
2024/02/01 04:09:20;;;;;;;30.88;8.05;;;9.00;99.90;;;9.32;91.63;102574.59;4994263;28;20101;-70
2024/02/01 04:11:49;;;;;;;37.38;8.02;;;9.10;99.90;;;9.28;91.64;102551.59;4993813;28;20506;-68
2024/02/01 04:14:18;;;;;;;39.67;8.07;;;9.00;99.90;;;9.40;91.23;102562.50;4994091;28;20039;-69
2024/02/01 04:16:47;;;;;;;33.70;7.13;;;9.10;99.90;;;9.24;91.48;102570.84;4993816;28;20062;-69
2024/02/01 04:19:18;;;;;;;40.38;9.25;;;9.00;99.90;;;9.22;90.65;102577.84;4993496;28;20046;-69
2024/02/01 04:21:47;;;;;;;33.58;8.13;;;9.00;99.90;;;9.14;90.85;102579.34;4993805;28;20038;-69
2024/02/01 04:24:16;;;;;;;32.33;7.20;;;8.80;99.90;;;9.06;91.01;102578.22;4993728;28;20041;-70
2024/02/01 04:26:45;;;;;;;30.60;7.18;;;8.80;99.90;;;9.22;90.68;102600.69;4993956;28;20042;-70
2024/02/01 04:29:14;;;;;;;35.60;7.90;;;8.90;99.90;;;9.23;90.50;102610.41;4993841;28;20042;-71
2024/02/01 04:31:43;;;;;;;36.30;8.57;;;8.90;99.90;;;9.15;90.07;102606.66;4993437;28;20033;-69
2024/02/01 04:34:12;;;;;;;26.88;7.13;;;8.80;99.90;;;9.06;90.22;102613.44;4993736;28;20395;-69
2024/02/01 04:36:45;;;;;;;32.97;7.80;;;8.70;99.90;;;8.85;90.89;102619.81;4993897;28;20338;-69
2024/02/01 04:39:13;;;;;;;33.70;8.25;;;8.60;99.90;;;8.00;91.30;102481.75;4993821;28;20045;-69
2024/02/01 04:41:43;;;;;;;35.15;8.27;;;8.50;99.90;;;8.80;90.84;102608.25;4993524;28;20129;-70
2024/02/01 04:44:12;;;;;;;36.28;7.30;;;8.50;99.90;;;8.77;91.14;102616.94;4993681;28;20046;-69
2024/02/01 04:46:40;;;;;;;32.00;7.07;;;8.50;99.90;;;8.81;91.48;102621.47;4993381;28;20042;-69
2024/02/01 04:49:12;;;;;;;34.28;8.10;;;8.50;99.90;;;8.70;91.30;102624.63;4993749;28;20042;-69
2024/02/01 04:51:44;;;;;;;33.67;7.45;;;8.40;99.90;;;8.66;91.58;102620.09;4993672;28;20042;-69
2024/02/01 04:54:12;;;;;;;37.83;9.02;;;8.40;99.90;;;8.82;91.66;102622.38;4993590;28;20384;-69
2024/02/01 04:56:42;;;;;;;28.63;8.00;;;8.40;99.90;;;8.60;91.80;102597.06;4993623;28;20054;-69
2024/02/01 04:59:11;;;;;;;39.35;7.90;;;8.40;99.90;;;8.75;92.19;102623.06;4993482;28;20137;-69
2024/02/01 05:01:40;;;;;;;35.60;8.65;;;8.40;99.90;;;8.76;92.63;102627.47;4992048;28;20050;-68
2024/02/01 05:04:13;;;;;;;37.03;7.80;;;8.40;99.90;;;8.70;92.91;102627.25;4992962;28;20096;-69
2024/02/01 05:06:42;;;;;;;35.25;8.18;;;8.40;99.90;;;8.69;92.97;102629.00;4993228;28;20042;-69
2024/02/01 05:09:25;;;;;;;34.85;7.93;;;8.40;99.90;;;8.71;93.75;102637.00;4993199;28;20044;-69
2024/02/01 05:11:54;;;;;;;37.53;7.38;;;8.40;99.90;;;8.69;93.81;102642.19;4993032;28;20542;-69
2024/02/01 05:14:23;;;;;;;37.97;7.55;;;8.40;99.90;;;8.57;94.43;102638.28;4992055;28;20042;-69
2024/02/01 05:16:52;;;;;;;35.15;7.55;;;8.40;99.90;;;8.51;94.96;102651.28;4991778;28;20042;-69
2024/02/01 05:19:21;;;;;;;27.13;7.28;;;8.30;99.90;;;8.51;95.64;102646.91;4993369;28;20491;-69
2024/02/01 05:21:52;;;;;;;30.38;7.75;;;8.30;99.90;;;8.62;95.50;102641.94;4993694;28;20447;-69
2024/02/01 05:24:23;;;;;;;38.78;8.40;;;8.30;99.90;;;8.45;95.60;102636.16;4993357;28;20050;-69
2024/02/01 05:26:52;;;;;;;;;;;8.30;99.90;;;8.65;95.14;102656.13;4993492;28;20042;-69
2024/02/01 05:29:22;;;;;;;36.60;8.40;;;8.40;99.90;;;8.54;95.45;102656.63;4992930;28;19918;-69
2024/02/01 05:31:52;;;;;;;39.47;8.57;;;8.30;99.90;;;8.48;96.02;102651.19;4993067;28;20042;-69
2024/02/01 05:34:22;;;;;;;36.17;8.23;;;8.30;99.90;;;8.54;95.25;102667.19;4992869;28;20124;-69
2024/02/01 05:36:52;;;;;;;;;;;8.30;99.90;;;8.42;95.01;102648.34;4993900;28;20468;-69
2024/02/01 05:39:25;;;;;;;37.78;7.97;;;8.40;99.90;;;8.59;95.41;102673.53;4992809;28;20362;-69
2024/02/01 05:41:54;;;;;;;43.65;8.68;;;8.40;99.90;;;8.60;95.17;102677.94;4993062;28;20043;-69
2024/02/01 05:44:24;;;;;;;31.63;7.97;;;8.30;99.90;;;8.62;94.41;102686.78;4993278;28;20125;-69
2024/02/01 05:46:55;;;;;;;38.45;7.68;;;8.30;99.90;;;8.58;94.51;102692.81;4992547;28;20053;-69
2024/02/01 05:49:24;;;;;;;;;;;8.30;99.90;;;8.47;94.49;102708.28;4993597;28;20058;-70
2024/02/01 05:51:54;;;;;;;42.35;8.50;;;8.20;99.90;;;8.37;94.16;102713.19;4992450;28;20363;-68
2024/02/01 05:54:23;;;;;;;40.50;8.68;;;8.20;99.90;;;8.27;94.79;102711.06;4992577;28;20046;-69
2024/02/01 05:56:52;;;;;;;30.95;8.48;;;8.10;99.90;;;8.29;94.48;102704.13;4992551;28;20050;-69
2024/02/01 05:59:20;;;;;;;34.35;8.10;;;8.10;99.90;;;8.47;94.45;102710.94;4995701;28;20121;-69
2024/02/01 06:01:49;;;;;;;39.80;8.55;;;8.20;99.90;;;8.46;94.39;102710.91;4996343;28;20391;-69
2024/02/01 06:04:18;;;;;;;34.90;8.75;;;8.20;99.90;;;8.43;94.50;102703.75;4996186;28;20488;-69
2024/02/01 06:06:48;;;;;;;36.50;8.68;;;8.20;99.90;;;8.36;93.09;102682.41;4995155;28;20120;-70
2024/02/01 06:09:17;;;;;;;41.20;8.60;;;8.20;99.90;;;8.40;93.38;102714.19;4996198;28;20117;-70
2024/02/01 06:11:49;;;;;;;30.65;8.32;;;8.20;99.90;;;8.34;93.07;102699.94;4995909;28;20070;-69
2024/02/01 06:14:18;;;;;;;33.15;8.55;;;8.20;99.90;;;8.44;93.04;102715.22;4996031;28;20456;-69
2024/02/01 06:16:47;;;;;;;35.38;8.98;;;8.20;99.90;;;7.91;92.41;102618.47;4995807;28;20073;-70
2024/02/01 06:19:15;;;;;;;39.25;9.63;;;8.20;99.90;;;8.51;92.45;102740.94;4996594;28;20451;-69
2024/02/01 06:21:44;;;;;;;38.10;9.23;;;8.20;99.90;;;8.56;92.17;102749.88;4995887;28;20050;-69
2024/02/01 06:24:12;;;;;;;35.95;9.27;;;8.30;99.90;;;8.51;92.20;102748.84;4995794;28;20042;-69
2024/02/01 06:26:41;;;;;;;44.38;9.35;;;8.20;99.90;;;8.54;92.32;102756.84;4996001;28;20038;-69
2024/02/01 06:29:12;;;;;;;33.28;8.65;;;8.20;99.90;;;8.68;91.82;102755.59;4995954;28;20050;-69
2024/02/01 06:31:41;;;;;;;39.38;8.75;;;8.30;99.90;;;8.62;91.87;102758.91;4995690;28;20053;-69
2024/02/01 06:34:11;;;;;;;40.53;8.55;;;8.30;99.90;;;8.25;91.50;102704.84;4995768;28;20424;-69
2024/02/01 06:36:41;;;;;;;38.20;8.35;;;8.30;99.90;;;8.58;91.76;102771.94;4995715;28;20104;-70
2024/02/01 06:39:16;;;;;;;37.72;7.35;;;8.30;99.90;;;8.47;91.41;102761.03;4995941;28;20042;-71
2024/02/01 06:41:51;;;;;;;42.53;9.93;;;8.20;99.90;;;8.45;91.99;102769.72;4995364;28;20069;-70
2024/02/01 06:44:27;;;;;;;38.33;9.25;;;8.20;99.90;;;8.49;92.12;102775.19;4995300;28;20042;-68
2024/02/01 06:47:11;;;;;;;31.55;7.50;;;8.20;99.90;;;8.40;92.11;102774.84;4995225;28;20057;-71
2024/02/01 06:50:08;;;;;;;41.53;8.65;;;8.10;99.90;;;8.34;92.04;102781.66;4995590;28;20042;-69
2024/02/01 06:52:40;;;;;;;31.42;8.55;;;8.10;99.90;;;8.35;92.41;102789.63;4995912;28;20450;-70
2024/02/01 06:58:13;;;;;;;41.72;9.20;;;8.10;99.90;;;8.23;94.15;102783.00;4994366;28;20160;-69
2024/02/01 07:00:53;;;;;;;34.10;8.85;;;8.00;99.90;;;8.32;94.36;102796.53;4993235;28;20050;-69
2024/02/01 07:03:44;;;;;;;32.38;7.68;;;8.00;99.90;;;8.29;94.59;102804.31;4993249;28;20187;-68
2024/02/01 07:06:35;;;;;;;39.78;8.77;;;8.00;99.90;;;8.28;95.11;102807.81;4993291;28;20050;-68
2024/02/01 07:09:28;;;;;;;39.55;9.48;;;8.00;99.90;;;8.35;94.69;102809.81;4992938;28;20109;-70
2024/02/01 07:12:09;;;;;;;31.42;8.32;;;8.00;99.90;;;8.23;94.90;102808.50;4992990;28;20041;-72
2024/02/01 07:14:41;;;;;;;33.40;8.95;;;8.00;99.90;;;8.30;94.18;102814.03;4992808;28;20042;-71
2024/02/01 07:17:27;;;;;;;36.97;9.13;;;8.00;99.90;;;8.37;94.84;102827.47;4993007;28;20125;-71
2024/02/01 07:19:58;;;;;;;32.15;8.43;;;8.10;99.90;;;8.42;93.85;102825.00;4992084;28;20065;-71
2024/02/01 07:22:38;;;;;;;34.53;7.90;;;8.10;99.90;;;8.26;93.95;102822.66;4991629;28;20070;-70
2024/02/01 07:25:33;;;;;;;33.17;7.97;;;8.00;99.90;;;8.22;93.76;102811.09;4991640;28;20054;-71
2024/02/01 07:58:32;;;;;;;35.35;9.50;;;8.80;99.90;;;9.18;95.83;102882.22;4991923;28;20041;-69
2024/02/01 08:01:13;;;;;;;40.45;8.52;;;8.90;99.90;;;9.33;95.65;102884.47;4992135;28;20100;-69
2024/02/01 08:03:59;;;;;;;38.42;9.10;;;9.00;99.90;;;9.58;95.36;102893.22;4991921;28;20039;-69
2024/02/01 08:09:18;;;;;;;41.08;9.07;;;9.60;99.90;;;10.05;92.11;102910.56;4991966;28;20581;-68
2024/02/01 08:11:46;;;;;;;37.88;8.65;;;9.70;99.90;;;10.03;91.19;102918.47;4991775;28;20034;-68
2024/02/01 08:14:15;;;;;;;39.53;9.85;;;9.80;99.90;;;10.18;91.21;102914.53;4991658;28;20046;-67
2024/02/01 08:16:44;;;;;;;42.58;9.80;;;9.80;99.90;;;10.29;89.79;102910.44;4991785;28;20411;-68
2024/02/01 08:19:12;;;;;;;44.42;9.90;;;9.90;99.90;;;10.42;88.70;102912.59;4991588;28;20057;-69
2024/02/01 08:21:54;;;;;;;39.53;10.20;;;10.10;99.90;;;10.47;88.32;102916.28;4991116;28;20431;-69
2024/02/01 08:24:22;;;;;;;34.28;8.90;;;10.20;99.90;;;10.68;87.09;102907.19;4990388;28;20369;-70
2024/02/01 08:26:52;;;;;;;35.95;8.98;;;10.40;99.90;;;10.85;86.23;102918.25;4991661;28;20258;-69
2024/02/01 08:29:27;;;;;;;48.03;9.30;;;10.50;99.90;;;10.92;85.56;102919.31;4991704;28;20046;-74
2024/02/01 08:31:56;;;;;;;44.05;9.85;;;10.60;99.90;;;10.97;85.52;102922.97;4991537;28;20125;-69
2024/02/01 08:34:24;;;;;;;38.50;9.60;;;10.60;99.90;;;11.14;85.65;102929.59;4991591;28;20141;-64
2024/02/01 08:36:54;;;;;;;33.83;8.70;;;10.90;99.90;;;11.06;85.68;102886.13;4992142;28;20125;-64
2024/02/01 08:39:23;;;;;;;37.13;9.43;;;11.00;99.90;;;11.44;84.52;102944.53;4992172;28;20061;-63
2024/02/01 08:41:52;;;;;;;48.15;9.75;;;11.10;99.90;;;11.77;84.36;102956.00;4992054;28;20613;-64
2024/02/01 08:44:20;;;;;;;46.08;8.50;;;11.40;99.90;;;12.12;83.32;102966.53;4991899;28;20046;-65
2024/02/01 08:46:50;;;;;;;37.05;9.00;;;11.80;99.90;;;12.28;81.57;102968.69;4991495;28;20197;-64
2024/02/01 08:49:20;;;;;;;35.85;8.52;;;12.00;99.90;;;12.79;80.94;102966.25;4992272;28;20054;-66
2024/02/01 08:51:49;;;;;;;38.03;9.43;;;12.40;99.90;;;12.98;78.43;102976.38;4991579;28;20942;-65
2024/02/01 08:54:18;;;;;;;43.05;9.85;;;12.70;99.90;;;13.01;77.02;102976.41;4990178;28;20638;-64
2024/02/01 08:56:47;;;;;;;33.17;8.70;;;12.80;99.90;;;13.14;75.87;102983.81;4991483;28;20138;-65
2024/02/01 08:59:22;;;;;;;40.33;9.02;;;12.90;99.90;;;12.72;75.90;102967.88;4991374;28;20068;-65
2024/02/01 09:01:52;;;;;;;44.08;9.90;;;12.60;99.90;;;12.65;75.39;102984.56;4991182;28;20042;-65
2024/02/01 09:04:22;;;;;;;45.50;10.25;;;12.50;99.90;;;12.39;77.09;102991.94;4990138;28;20046;-62
2024/02/01 09:06:54;;;;;;;40.45;9.68;;;12.20;99.90;;;12.51;76.10;102994.88;4991033;28;20046;-64
2024/02/01 09:09:29;;;;;;;42.97;9.65;;;12.20;99.90;;;11.79;76.18;102874.75;4990904;28;20030;-65
2024/02/01 09:11:59;;;;;;;46.08;9.77;;;12.20;99.90;;;12.18;77.39;102969.34;4991232;28;20260;-66
2024/02/01 09:14:29;;;;;;;35.00;9.15;;;12.10;99.90;;;12.37;77.88;103000.72;4990976;28;20309;-64
2024/02/01 09:16:58;;;;;;;40.40;8.95;;;12.00;99.90;;;12.56;76.47;102997.66;4991093;28;20053;-64
2024/02/01 09:19:27;;;;;;;37.20;9.00;;;12.30;99.90;;;12.63;75.95;102994.25;4990542;28;20491;-64
2024/02/01 09:21:57;;;;;;;34.40;9.30;;;12.40;99.90;;;12.60;76.02;103004.81;4990811;28;20476;-65
2024/02/01 09:24:27;;;;;;;32.38;9.38;;;12.40;99.90;;;12.62;75.75;103025.22;4991025;28;20069;-67
2024/02/01 09:26:57;;;;;;;36.15;10.13;;;12.30;99.90;;;12.57;76.41;103025.97;4990775;28;20065;-66
2024/02/01 09:29:26;;;;;;;33.10;9.00;;;12.30;99.90;;;12.45;76.46;103029.25;4990711;28;20042;-66
2024/02/01 09:31:56;;;;;;;38.03;9.32;;;12.20;99.90;;;12.24;77.22;103034.06;4991512;28;20046;-65
2024/02/01 09:34:25;;;;;;;46.05;9.65;;;12.00;99.90;;;12.33;77.59;103025.44;4995020;28;20046;-64
2024/02/01 09:36:53;;;;;;;42.70;9.63;;;12.00;99.90;;;12.29;77.35;103027.09;4994641;28;20030;-65
2024/02/01 09:39:22;;;;;;;36.15;9.07;;;12.00;99.90;;;12.11;77.06;103024.03;4994540;28;20042;-66
2024/02/01 09:41:53;;;;;;;37.53;8.57;;;11.90;99.90;;;11.88;77.75;103013.72;4994601;28;20108;-67
2024/02/01 09:44:22;;;;;;;44.30;10.30;;;11.70;99.90;;;12.29;78.05;103026.22;4994713;28;20045;-64
2024/02/01 09:46:51;;;;;;;43.03;9.68;;;12.00;99.90;;;12.54;78.51;103036.53;4993498;28;20484;-63
2024/02/01 09:49:21;;;;;;;40.22;9.65;;;12.20;99.90;;;12.59;76.69;103040.19;4994561;28;20042;-64
2024/02/01 09:51:59;;;;;;;38.60;9.50;;;12.30;99.90;;;12.52;76.98;103038.25;4994939;28;20121;-64
2024/02/01 09:54:28;;;;;;;41.80;9.40;;;12.30;99.90;;;12.64;76.49;103039.41;4994805;28;20038;-64
2024/02/01 09:56:58;;;;;;;35.58;9.13;;;12.30;99.90;;;12.51;76.59;103047.06;4994467;28;20042;-64
2024/02/01 09:59:27;;;;;;;46.60;9.05;;;12.20;99.90;;;12.50;76.72;103058.56;4995034;28;20064;-63
2024/02/01 10:01:55;;;;;;;38.65;9.40;;;12.20;99.90;;;12.78;75.80;103055.66;4994499;28;20061;-64
2024/02/01 10:04:24;;;;;;;38.67;10.43;;;12.50;99.90;;;13.01;75.14;103061.44;4994344;28;20042;-64
2024/02/01 10:06:53;;;;;;;37.00;8.90;;;12.70;99.90;;;12.92;74.72;103062.16;4992939;28;20050;-64
2024/02/01 10:09:22;;;;;;;30.35;8.50;;;12.70;99.90;;;13.39;74.73;103063.16;4992928;28;20153;-64
2024/02/01 10:11:53;;;;;;;37.55;8.60;;;13.00;99.90;;;13.17;73.38;103059.19;4994031;28;20044;-64
2024/02/01 10:14:34;;;;;;;37.20;9.68;;;12.90;99.90;;;13.00;73.34;103060.56;4994357;28;20050;-63
2024/02/01 10:17:05;;;;;;;33.42;8.68;;;12.70;99.90;;;13.00;72.73;103049.94;4994122;28;20042;-66
2024/02/01 10:19:37;;;;;;;32.80;8.48;;;12.90;99.90;;;13.55;71.96;103083.81;4993940;28;20120;-63
2024/02/01 10:22:08;;;;;;;34.45;9.80;;;13.20;99.90;;;13.20;70.96;103077.81;4993866;28;20034;-64
2024/02/01 10:24:45;;;;;;;34.35;8.13;;;13.10;99.90;;;13.20;71.72;103072.50;4994063;28;20038;-64
2024/02/01 10:27:14;;;;;;;37.25;9.02;;;12.90;99.90;;;12.76;72.07;103070.66;4993993;28;20117;-63
2024/02/01 10:29:45;;;;;;;34.47;8.75;;;12.60;99.90;;;12.95;73.47;103072.84;4994470;28;20042;-63
2024/02/01 10:32:16;;;;;;;36.63;8.55;;;12.60;99.90;;;13.12;71.40;103065.28;4994008;28;20065;-63
2024/02/01 10:34:50;;;;;;;41.60;9.57;;;12.80;99.90;;;13.06;71.52;103083.75;4992745;28;20419;-64
2024/02/01 10:37:20;;;;;;;35.05;8.63;;;12.80;99.90;;;12.98;71.00;103085.31;4993416;28;20118;-63
2024/02/01 10:40:00;;;;;;;32.33;7.70;;;12.80;99.90;;;13.17;70.71;103083.09;4993696;28;20093;-63
2024/02/01 10:42:31;;;;;;;35.17;9.37;;;12.90;99.90;;;13.11;71.26;103080.31;4993674;28;20046;-63
2024/02/01 10:45:06;;;;;;;34.65;8.52;;;12.80;99.90;;;13.54;70.48;103085.63;4992705;28;20042;-64
2024/02/01 10:47:42;;;;;;;29.40;8.25;;;13.20;99.90;;;13.12;69.56;103074.16;4993302;28;20133;-64
2024/02/01 10:50:11;;;;;;;34.78;8.90;;;13.00;99.90;;;13.30;69.46;103077.16;4993833;28;20053;-64
2024/02/01 10:52:43;;;;;;;33.03;8.65;;;13.10;99.90;;;12.91;69.07;103081.59;4993783;28;20451;-65
2024/02/01 10:55:12;;;;;;;37.38;8.27;;;12.80;99.90;;;12.97;70.22;103068.44;4993430;28;20050;-66
2024/02/01 10:57:42;;;;;;;33.50;8.60;;;12.70;99.90;;;12.87;70.18;103074.47;4993145;28;20600;-65